Time;durP1;ratioP1;P1;durP2;ratioP2;P2;SDS_P1;SDS_P2;PMS_P1;PMS_P2;Temp;Humidity;BMP_temperature;BMP_pressure;BME280_temperature;BME280_humidity;BME280_pressure;Samples;Min_cycle;Max_cycle;Signal;HPM_P1;HPM_P2
2022/11/29 00:01:34;;;;;;;6.27;3.20;;;;;;;;;;5106406;28;20118;-62
2022/11/29 00:04:01;;;;;;;3.13;2.40;;;;;;;;;;5107310;28;20062;-63
2022/11/29 00:06:29;;;;;;;4.27;1.83;;;;;;;;;;5111996;28;20072;-63
2022/11/29 00:08:57;;;;;;;2.07;1.57;;;;;;;;;;5112546;28;20028;-64
2022/11/29 00:14:11;;;;;;;5.07;2.70;;;;;;;;;;5112395;28;20107;-62
2022/11/29 00:16:40;;;;;;;3.00;1.50;;;;;;;;;;5112011;28;20041;-63
2022/11/29 00:19:07;;;;;;;4.30;2.00;;;;;;;;;;5107083;28;20023;-63
2022/11/29 00:21:34;;;;;;;7.50;2.63;;;;;;;;;;5106758;28;20028;-63
2022/11/29 00:24:00;;;;;;;5.63;3.90;;;;;;;;;;5107189;28;20039;-63
2022/11/29 00:26:27;;;;;;;4.53;2.40;;;;;;;;;;5106857;28;20043;-63
2022/11/29 00:28:54;;;;;;;7.03;3.73;;;;;;;;;;5112184;28;20035;-64
2022/11/29 00:31:25;;;;;;;3.73;2.00;;;;;;;;;;5111986;28;20474;-65
2022/11/29 00:33:54;;;;;;;6.60;3.60;;;;;;;;;;5112496;28;20255;-65
2022/11/29 00:36:20;;;;;;;3.37;1.60;;;;;;;;;;5112070;28;20469;-63
2022/11/29 00:38:47;;;;;;;4.60;3.20;;;;;;;;;;5112312;28;20482;-64
2022/11/29 00:41:14;;;;;;;3.90;2.00;;;;;;;;;;5106833;28;20046;-65
2022/11/29 00:43:41;;;;;;;1.67;1.07;;;;;;;;;;5107119;28;20035;-64
2022/11/29 00:46:08;;;;;;;3.13;2.03;;;;;;;;;;5106841;28;20019;-64
2022/11/29 00:48:34;;;;;;;4.03;1.50;;;;;;;;;;5106275;28;20036;-64
2022/11/29 00:51:01;;;;;;;3.97;2.03;;;;;;;;;;5111251;28;20028;-64
2022/11/29 00:53:28;;;;;;;5.43;3.33;;;;;;;;;;5112003;28;20040;-63
2022/11/29 00:55:55;;;;;;;7.53;3.67;;;;;;;;;;5131986;28;20098;-64
2022/11/29 00:58:22;;;;;;;5.53;2.93;;;;;;;;;;5132765;28;20089;-65
2022/11/29 01:00:49;;;;;;;7.40;1.73;;;;;;;;;;5132708;28;20083;-63
2022/11/29 01:03:16;;;;;;;3.27;2.30;;;;;;;;;;5127592;28;20019;-63
2022/11/29 01:05:43;;;;;;;2.83;2.23;;;;;;;;;;5120737;28;20035;-64
2022/11/29 01:08:11;;;;;;;2.70;1.77;;;;;;;;;;5106575;28;20538;-63
2022/11/29 01:10:37;;;;;;;3.07;1.80;;;;;;;;;;5106606;28;20378;-63
2022/11/29 01:13:04;;;;;;;6.07;1.70;;;;;;;;;;5110342;28;20027;-63
2022/11/29 01:15:31;;;;;;;3.23;2.43;;;;;;;;;;5114707;28;20118;-65
2022/11/29 01:17:58;;;;;;;3.93;2.40;;;;;;;;;;5115864;28;20117;-63
2022/11/29 01:20:25;;;;;;;2.60;1.83;;;;;;;;;;5115609;28;20416;-63
2022/11/29 01:22:51;;;;;;;3.50;1.73;;;;;;;;;;5115242;28;20073;-64
2022/11/29 01:25:18;;;;;;;2.13;1.07;;;;;;;;;;5111753;28;20019;-64
2022/11/29 01:27:45;;;;;;;2.00;1.47;;;;;;;;;;5110410;28;20032;-63
2022/11/29 01:30:12;;;;;;;1.77;1.33;;;;;;;;;;5110048;28;20034;-63
2022/11/29 01:32:39;;;;;;;2.77;1.00;;;;;;;;;;5109688;28;20032;-63
2022/11/29 01:35:06;;;;;;;1.60;1.20;;;;;;;;;;5113091;28;20016;-63
2022/11/29 01:37:33;;;;;;;1.17;0.80;;;;;;;;;;5115226;28;20019;-63
2022/11/29 01:40:00;;;;;;;1.40;1.07;;;;;;;;;;5115214;28;20019;-65
2022/11/29 01:42:27;;;;;;;4.77;2.10;;;;;;;;;;5115235;28;20026;-63
2022/11/29 01:45:02;;;;;;;2.37;1.60;;;;;;;;;;5115182;28;20023;-63
2022/11/29 01:47:28;;;;;;;;;;;;;;;;;;5111968;28;20059;-62
2022/11/29 01:49:56;;;;;;;1.53;1.13;;;;;;;;;;5109113;28;20010;-63
2022/11/29 01:52:25;;;;;;;1.33;1.07;;;;;;;;;;5109409;28;20242;-62
2022/11/29 01:54:55;;;;;;;2.33;1.33;;;;;;;;;;5098296;28;20027;-62
2022/11/29 01:57:22;;;;;;;3.57;1.53;;;;;;;;;;5091956;28;20474;-63
2022/11/29 01:59:50;;;;;;;6.50;2.37;;;;;;;;;;5094498;28;20442;-64
2022/11/29 02:02:21;;;;;;;15.53;1.77;;;;;;;;;;5094535;28;20027;-63
2022/11/29 02:04:48;;;;;;;2.10;1.37;;;;;;;;;;5094462;28;20020;-63
2022/11/29 02:07:15;;;;;;;2.03;1.43;;;;;;;;;;5094371;28;20423;-63
2022/11/29 02:09:42;;;;;;;2.30;1.70;;;;;;;;;;5091347;28;20031;-62
2022/11/29 02:12:32;;;;;;;2.73;1.90;;;;;;;;;;5089271;28;20032;-63
2022/11/29 02:15:25;;;;;;;1.47;0.90;;;;;;;;;;5078300;28;20092;-63
2022/11/29 02:17:54;;;;;;;1.63;1.10;;;;;;;;;;5050126;28;20482;-63
2022/11/29 02:20:27;;;;;;;2.60;1.80;;;;;;;;;;5092761;28;20024;-63
2022/11/29 02:23:12;;;;;;;1.70;1.27;;;;;;;;;;5094218;28;20456;-62
2022/11/29 02:25:38;;;;;;;;;;;;;;;;;;5094405;28;20024;-63
2022/11/29 02:28:29;;;;;;;2.57;1.77;;;;;;;;;;5094103;28;19910;-62
2022/11/29 02:31:02;;;;;;;14.30;2.00;;;;;;;;;;5093593;28;20778;-63
2022/11/29 02:33:47;;;;;;;4.37;2.23;;;;;;;;;;5088476;28;20547;-62
2022/11/29 02:36:38;;;;;;;2.47;1.48;;;;;;;;;;5088052;28;20023;-63
2022/11/29 02:39:04;;;;;;;2.60;1.47;;;;;;;;;;5108914;28;20024;-63
2022/11/29 02:41:49;;;;;;;2.47;1.50;;;;;;;;;;5109983;28;20020;-63
2022/11/29 02:44:37;;;;;;;3.25;2.38;;;;;;;;;;5114083;28;20019;-62
2022/11/29 02:47:15;;;;;;;5.10;2.50;;;;;;;;;;5112189;28;20024;-63
2022/11/29 02:50:00;;;;;;;4.13;1.40;;;;;;;;;;5113792;28;20047;-63
2022/11/29 02:52:48;;;;;;;3.63;2.27;;;;;;;;;;5101579;28;20032;-63
2022/11/29 02:55:21;;;;;;;5.27;3.97;;;;;;;;;;5088589;28;20035;-63
2022/11/29 02:58:06;;;;;;;15.33;2.97;;;;;;;;;;5088080;28;20103;-62
2022/11/29 03:00:35;;;;;;;3.38;2.35;;;;;;;;;;5088070;28;20055;-62
2022/11/29 03:03:20;;;;;;;3.33;1.73;;;;;;;;;;5105176;28;20027;-62
2022/11/29 03:05:50;;;;;;;3.47;2.13;;;;;;;;;;5113804;28;20085;-62
2022/11/29 03:08:22;;;;;;;2.67;1.70;;;;;;;;;;5113271;28;20020;-63
2022/11/29 03:11:12;;;;;;;13.47;1.67;;;;;;;;;;5111555;28;20028;-63
2022/11/29 03:13:56;;;;;;;1.53;1.27;;;;;;;;;;5100629;28;20042;-63
2022/11/29 03:16:34;;;;;;;2.37;1.73;;;;;;;;;;5111473;28;20096;-63
2022/11/29 03:19:16;;;;;;;6.50;2.73;;;;;;;;;;5108082;28;20069;-62
2022/11/29 03:21:46;;;;;;;2.83;1.70;;;;;;;;;;5107857;28;20020;-63
2022/11/29 03:24:18;;;;;;;2.00;1.23;;;;;;;;;;5107498;28;20470;-63
2022/11/29 03:26:49;;;;;;;3.57;2.00;;;;;;;;;;5110449;28;20366;-62
2022/11/29 03:29:26;;;;;;;3.30;1.50;;;;;;;;;;5113277;28;20019;-62
2022/11/29 03:32:13;;;;;;;2.07;1.60;;;;;;;;;;5112978;28;20040;-63
2022/11/29 03:34:49;;;;;;;4.57;2.47;;;;;;;;;;5111195;28;20026;-62
2022/11/29 03:37:15;;;;;;;3.50;2.53;;;;;;;;;;5110210;28;20038;-62
2022/11/29 03:39:55;;;;;;;3.13;1.53;;;;;;;;;;5108947;28;20114;-63
2022/11/29 03:42:33;;;;;;;2.73;1.33;;;;;;;;;;5107839;28;20032;-62
2022/11/29 03:45:08;;;;;;;5.00;2.50;;;;;;;;;;5103488;28;20036;-62
2022/11/29 03:47:38;;;;;;;5.97;2.87;;;;;;;;;;5087240;28;20024;-63
2022/11/29 03:50:07;;;;;;;6.53;2.20;;;;;;;;;;5091543;28;20032;-62
2022/11/29 03:52:52;;;;;;;5.30;3.03;;;;;;;;;;5100548;28;20042;-62
2022/11/29 03:55:22;;;;;;;3.78;2.25;;;;;;;;;;5095500;28;20031;-63
2022/11/29 03:57:54;;;;;;;4.00;1.77;;;;;;;;;;5092446;28;20032;-63
2022/11/29 04:00:21;;;;;;;2.07;1.53;;;;;;;;;;5091957;28;20031;-62
2022/11/29 04:02:59;;;;;;;4.53;2.30;;;;;;;;;;5086948;28;20024;-62
2022/11/29 04:05:36;;;;;;;6.57;3.07;;;;;;;;;;5086751;28;20115;-62
2022/11/29 04:08:15;;;;;;;3.23;2.60;;;;;;;;;;5095227;28;20580;-62
2022/11/29 04:10:48;;;;;;;3.50;2.53;;;;;;;;;;5087722;28;20032;-62
2022/11/29 04:13:34;;;;;;;4.50;2.17;;;;;;;;;;5092071;28;20035;-62
2022/11/29 04:16:09;;;;;;;1.97;1.53;;;;;;;;;;5092284;28;20023;-62
2022/11/29 04:18:54;;;;;;;2.87;2.13;;;;;;;;;;5092289;28;20012;-62
2022/11/29 04:21:29;;;;;;;2.33;1.67;;;;;;;;;;5091845;28;20516;-63
2022/11/29 04:23:56;;;;;;;1.95;1.33;;;;;;;;;;5089171;28;20089;-62
2022/11/29 04:26:29;;;;;;;8.10;2.50;;;;;;;;;;5086980;28;20107;-62
2022/11/29 04:29:11;;;;;;;2.43;1.63;;;;;;;;;;5086658;28;20103;-62
2022/11/29 04:31:56;;;;;;;5.80;1.90;;;;;;;;;;5101002;28;20063;-63
2022/11/29 04:34:25;;;;;;;1.83;1.40;;;;;;;;;;5110744;28;20032;-62
2022/11/29 04:37:10;;;;;;;1.70;1.27;;;;;;;;;;5112430;28;20020;-62
2022/11/29 04:39:55;;;;;;;3.72;1.33;;;;;;;;;;5112018;28;20034;-63
2022/11/29 04:42:35;;;;;;;1.40;1.13;;;;;;;;;;5112368;28;20054;-62
2022/11/29 04:45:02;;;;;;;1.67;1.30;;;;;;;;;;5111924;28;20020;-62
2022/11/29 04:47:42;;;;;;;4.60;2.37;;;;;;;;;;5106884;28;20170;-62
2022/11/29 04:50:09;;;;;;;0.97;0.90;;;;;;;;;;5110998;28;21443;-62
2022/11/29 04:52:47;;;;;;;2.23;1.50;;;;;;;;;;5110870;28;20481;-62
2022/11/29 04:55:37;;;;;;;3.93;1.83;;;;;;;;;;5106467;28;20129;-62
2022/11/29 04:58:09;;;;;;;4.20;1.77;;;;;;;;;;5116100;28;20072;-62
2022/11/29 05:00:42;;;;;;;5.87;4.20;;;;;;;;;;5115871;28;20027;-62
2022/11/29 05:03:16;;;;;;;10.17;4.57;;;;;;;;;;5116097;28;20486;-62
2022/11/29 05:05:46;;;;;;;5.93;3.50;;;;;;;;;;5116170;28;20072;-62
2022/11/29 05:08:16;;;;;;;5.30;3.37;;;;;;;;;;5113295;28;20023;-62
2022/11/29 05:10:43;;;;;;;9.97;6.43;;;;;;;;;;5110973;28;20031;-62
2022/11/29 05:13:13;;;;;;;2.80;2.03;;;;;;;;;;5110655;28;20019;-62
2022/11/29 05:15:59;;;;;;;5.17;3.43;;;;;;;;;;5108994;28;20428;-62
2022/11/29 05:18:35;;;;;;;5.10;3.90;;;;;;;;;;5099677;28;20032;-62
2022/11/29 05:21:16;;;;;;;10.13;5.37;;;;;;;;;;5095223;28;20378;-63
2022/11/29 05:23:49;;;;;;;4.90;3.63;;;;;;;;;;5095430;28;20031;-62
2022/11/29 05:26:18;;;;;;;6.00;4.43;;;;;;;;;;5095273;28;20024;-62
2022/11/29 05:28:58;;;;;;;13.20;10.43;;;;;;;;;;5094964;28;20020;-62
2022/11/29 05:31:34;;;;;;;7.90;4.60;;;;;;;;;;5090844;28;20032;-62
2022/11/29 05:34:07;;;;;;;20.53;8.33;;;;;;;;;;5089890;28;20024;-62
2022/11/29 05:36:55;;;;;;;4.40;3.50;;;;;;;;;;5089733;28;20541;-62
2022/11/29 05:39:25;;;;;;;13.03;5.97;;;;;;;;;;5098966;28;20028;-62
2022/11/29 05:42:03;;;;;;;10.33;5.23;;;;;;;;;;5114795;28;20508;-62
2022/11/29 05:44:37;;;;;;;13.20;2.73;;;;;;;;;;5115333;28;20023;-62
2022/11/29 05:47:05;;;;;;;7.28;4.78;;;;;;;;;;5115292;28;20482;-62
2022/11/29 05:49:47;;;;;;;8.97;5.43;;;;;;;;;;5115211;28;20024;-62
2022/11/29 05:52:24;;;;;;;6.53;3.83;;;;;;;;;;5114407;28;20047;-62
2022/11/29 05:54:58;;;;;;;9.83;5.03;;;;;;;;;;5098678;28;20489;-62
2022/11/29 05:57:37;;;;;;;9.38;5.13;;;;;;;;;;5089214;28;20591;-61
2022/11/29 06:00:05;;;;;;;13.37;7.17;;;;;;;;;;5102754;28;20107;-62
2022/11/29 06:02:55;;;;;;;9.80;6.83;;;;;;;;;;5110732;28;20098;-62
2022/11/29 06:05:25;;;;;;;12.33;6.77;;;;;;;;;;5102015;28;20492;-62
2022/11/29 06:07:55;;;;;;;16.40;5.00;;;;;;;;;;5114702;28;20024;-62
2022/11/29 06:10:28;;;;;;;4.63;3.43;;;;;;;;;;5114922;28;20094;-62
2022/11/29 06:13:15;;;;;;;3.97;2.70;;;;;;;;;;5114554;28;20020;-62
2022/11/29 06:16:08;;;;;;;3.67;2.23;;;;;;;;;;5110982;28;20030;-62
2022/11/29 06:18:53;;;;;;;3.63;2.50;;;;;;;;;;5106686;28;20039;-62
2022/11/29 06:21:39;;;;;;;5.80;2.13;;;;;;;;;;5109342;28;20020;-64
2022/11/29 06:24:20;;;;;;;2.60;1.73;;;;;;;;;;5095541;28;20024;-64
2022/11/29 06:26:55;;;;;;;5.30;3.07;;;;;;;;;;5094082;28;20501;-63
2022/11/29 06:29:41;;;;;;;7.50;3.83;;;;;;;;;;5093870;28;20497;-62
2022/11/29 06:32:26;;;;;;;11.50;4.33;;;;;;;;;;5093976;28;20479;-62
2022/11/29 06:34:59;;;;;;;7.22;5.13;;;;;;;;;;5093621;28;20020;-62
2022/11/29 06:37:31;;;;;;;6.73;4.27;;;;;;;;;;5091702;28;20024;-62
2022/11/29 06:39:58;;;;;;;4.10;2.80;;;;;;;;;;5088637;28;20032;-62
2022/11/29 06:42:24;;;;;;;4.97;3.27;;;;;;;;;;5088516;28;20032;-63
2022/11/29 06:44:51;;;;;;;6.80;4.23;;;;;;;;;;5088542;28;20031;-63
2022/11/29 06:47:24;;;;;;;6.30;4.20;;;;;;;;;;5095366;28;20466;-62
2022/11/29 06:49:58;;;;;;;6.00;3.67;;;;;;;;;;5114039;28;20027;-62
2022/11/29 06:52:27;;;;;;;8.50;4.57;;;;;;;;;;5114019;28;20031;-62
2022/11/29 06:55:03;;;;;;;5.13;3.10;;;;;;;;;;5102624;28;20020;-62
2022/11/29 06:57:59;;;;;;;7.00;4.80;;;;;;;;;;5093696;28;20020;-63
2022/11/29 07:00:25;;;;;;;;;;;;;;;;;;5069272;28;20570;-62
2022/11/29 07:03:10;;;;;;;8.63;5.13;;;;;;;;;;5088083;28;19911;-63
2022/11/29 07:05:38;;;;;;;5.32;3.97;;;;;;;;;;5088069;28;20024;-64
2022/11/29 07:08:06;;;;;;;9.80;5.80;;;;;;;;;;5087717;28;20375;-62
2022/11/29 07:10:35;;;;;;;5.80;3.93;;;;;;;;;;5090158;28;20028;-62
2022/11/29 07:13:02;;;;;;;7.93;5.10;;;;;;;;;;5109564;28;20028;-62
2022/11/29 07:15:29;;;;;;;6.80;4.70;;;;;;;;;;5111549;28;20157;-62
2022/11/29 07:17:55;;;;;;;5.30;3.50;;;;;;;;;;5111095;28;20078;-63
2022/11/29 07:20:22;;;;;;;6.20;4.77;;;;;;;;;;5111238;28;20016;-62
2022/11/29 07:23:01;;;;;;;8.53;4.30;;;;;;;;;;5107601;28;20027;-62
2022/11/29 07:25:48;;;;;;;5.67;4.07;;;;;;;;;;5106793;28;20474;-62
2022/11/29 07:28:33;;;;;;;4.47;3.40;;;;;;;;;;5090301;28;20434;-62
2022/11/29 07:31:02;;;;;;;10.80;4.25;;;;;;;;;;5107500;28;20020;-62
2022/11/29 07:33:33;;;;;;;4.90;3.83;;;;;;;;;;5112534;28;20462;-62
2022/11/29 07:36:05;;;;;;;6.80;5.37;;;;;;;;;;5110012;28;20058;-62
2022/11/29 07:38:38;;;;;;;8.47;5.97;;;;;;;;;;5112890;28;20473;-62
2022/11/29 07:41:05;;;;;;;11.50;4.97;;;;;;;;;;5112239;28;20043;-62
2022/11/29 07:43:31;;;;;;;4.90;4.30;;;;;;;;;;5112689;28;20019;-62
2022/11/29 07:45:59;;;;;;;5.73;3.70;;;;;;;;;;5107437;28;20028;-62
2022/11/29 07:48:26;;;;;;;8.03;4.07;;;;;;;;;;5107211;28;20396;-62
2022/11/29 07:50:53;;;;;;;9.53;4.70;;;;;;;;;;5107067;28;20080;-62
2022/11/29 07:53:21;;;;;;;4.67;2.90;;;;;;;;;;5107109;28;20028;-62
2022/11/29 07:55:48;;;;;;;3.27;2.43;;;;;;;;;;5112160;28;20492;-62
2022/11/29 07:58:16;;;;;;;3.43;1.93;;;;;;;;;;5112136;28;20019;-62
2022/11/29 08:00:44;;;;;;;3.73;2.53;;;;;;;;;;5099413;28;20036;-62
2022/11/29 08:03:11;;;;;;;2.70;2.23;;;;;;;;;;5092202;28;20102;-62
2022/11/29 08:05:38;;;;;;;3.67;2.30;;;;;;;;;;5091962;28;20471;-62
2022/11/29 08:08:05;;;;;;;3.57;2.90;;;;;;;;;;5086873;28;20100;-62
2022/11/29 08:10:33;;;;;;;2.10;1.60;;;;;;;;;;5095087;28;20292;-62
2022/11/29 08:12:59;;;;;;;3.60;2.20;;;;;;;;;;5106543;28;20097;-62
2022/11/29 08:15:26;;;;;;;2.90;2.20;;;;;;;;;;5107218;28;20024;-62
2022/11/29 08:17:53;;;;;;;12.43;2.77;;;;;;;;;;5111447;28;20031;-63
2022/11/29 08:20:19;;;;;;;13.20;5.80;;;;;;;;;;5112543;28;20100;-62
2022/11/29 08:22:53;;;;;;;8.40;4.80;;;;;;;;;;5112092;28;20031;-62
2022/11/29 08:25:20;;;;;;;10.13;5.67;;;;;;;;;;5112444;28;20023;-62
2022/11/29 08:27:46;;;;;;;4.30;2.93;;;;;;;;;;5112331;28;20067;-62
2022/11/29 08:30:13;;;;;;;3.50;2.53;;;;;;;;;;5107283;28;20036;-62
2022/11/29 08:32:40;;;;;;;4.73;3.50;;;;;;;;;;5106899;28;20074;-62
2022/11/29 08:35:06;;;;;;;10.97;5.47;;;;;;;;;;5094328;28;20025;-62
2022/11/29 08:37:33;;;;;;;5.60;4.00;;;;;;;;;;5086597;28;20040;-62
2022/11/29 08:40:00;;;;;;;4.00;2.87;;;;;;;;;;5090382;28;20031;-62
2022/11/29 08:42:26;;;;;;;11.17;6.07;;;;;;;;;;5110013;28;20024;-63
2022/11/29 08:44:53;;;;;;;7.80;5.47;;;;;;;;;;5112301;28;20035;-62
2022/11/29 08:47:35;;;;;;;8.53;5.93;;;;;;;;;;5111627;28;20077;-62
2022/11/29 08:50:02;;;;;;;3.70;3.27;;;;;;;;;;5111975;28;20465;-62
2022/11/29 08:55:19;;;;;;;6.30;3.33;;;;;;;;;;5106684;28;20102;-61
2022/11/29 08:57:46;;;;;;;4.93;3.67;;;;;;;;;;5106888;28;20055;-62
2022/11/29 09:00:13;;;;;;;11.17;3.50;;;;;;;;;;5106470;28;20043;-62
2022/11/29 09:02:40;;;;;;;4.97;2.93;;;;;;;;;;5111091;28;20020;-62
2022/11/29 09:05:07;;;;;;;5.53;3.57;;;;;;;;;;5105974;28;20032;-62
2022/11/29 09:07:34;;;;;;;3.97;2.90;;;;;;;;;;5091659;28;20105;-62
2022/11/29 09:10:06;;;;;;;4.00;2.87;;;;;;;;;;5091699;28;20125;-62
2022/11/29 09:12:34;;;;;;;6.17;3.07;;;;;;;;;;5091681;28;20032;-62
2022/11/29 09:15:01;;;;;;;10.77;3.37;;;;;;;;;;5086529;28;20411;-62
2022/11/29 09:17:28;;;;;;;3.70;3.00;;;;;;;;;;5086541;28;20024;-62
2022/11/29 09:19:55;;;;;;;6.83;4.07;;;;;;;;;;5086091;28;20055;-62
2022/11/29 09:22:21;;;;;;;4.63;2.90;;;;;;;;;;5086239;28;20016;-62
2022/11/29 09:24:48;;;;;;;4.53;2.43;;;;;;;;;;5090633;28;20027;-62
2022/11/29 09:27:15;;;;;;;4.80;2.70;;;;;;;;;;5092369;28;20478;-61
2022/11/29 09:29:41;;;;;;;2.87;2.27;;;;;;;;;;5109422;28;20036;-62
2022/11/29 09:32:08;;;;;;;3.30;2.30;;;;;;;;;;5111687;28;20035;-62
2022/11/29 09:34:35;;;;;;;4.00;2.60;;;;;;;;;;5111932;28;20027;-62
2022/11/29 09:37:03;;;;;;;4.00;2.57;;;;;;;;;;5110842;28;20102;-62
2022/11/29 09:39:30;;;;;;;2.13;1.70;;;;;;;;;;5110068;28;20039;-62
2022/11/29 09:42:02;;;;;;;10.00;4.90;;;;;;;;;;5110181;28;20470;-63
2022/11/29 09:44:35;;;;;;;8.87;5.07;;;;;;;;;;5093334;28;20043;-63
2022/11/29 09:47:20;;;;;;;6.27;4.17;;;;;;;;;;5093847;28;20031;-61
2022/11/29 09:49:56;;;;;;;5.65;3.83;;;;;;;;;;5095044;28;20129;-62
2022/11/29 09:52:29;;;;;;;4.63;3.17;;;;;;;;;;5094608;28;20036;-62
2022/11/29 09:55:05;;;;;;;6.60;4.17;;;;;;;;;;5094830;28;20028;-62
2022/11/29 09:57:32;;;;;;;6.37;3.50;;;;;;;;;;5094361;28;20421;-62
2022/11/29 10:00:03;;;;;;;4.13;2.93;;;;;;;;;;5089199;28;20063;-62
2022/11/29 10:02:50;;;;;;;4.90;3.30;;;;;;;;;;5089071;28;20059;-62
2022/11/29 10:05:25;;;;;;;4.77;3.63;;;;;;;;;;5108272;28;20039;-62
2022/11/29 10:07:55;;;;;;;4.87;2.53;;;;;;;;;;5110511;28;20023;-62
2022/11/29 10:10:21;;;;;;;6.63;3.03;;;;;;;;;;5114891;28;20028;-62
2022/11/29 10:13:07;;;;;;;8.80;4.83;;;;;;;;;;5114270;28;20110;-62
2022/11/29 10:15:37;;;;;;;5.93;3.53;;;;;;;;;;5114921;28;20098;-62
2022/11/29 10:18:23;;;;;;;4.17;2.50;;;;;;;;;;5114984;28;20024;-62
2022/11/29 10:20:51;;;;;;;8.95;4.88;;;;;;;;;;5111698;28;20474;-62
2022/11/29 10:23:29;;;;;;;3.67;2.50;;;;;;;;;;5109304;28;20019;-62
2022/11/29 10:25:57;;;;;;;5.63;3.53;;;;;;;;;;5109286;28;20511;-62
2022/11/29 10:28:25;;;;;;;3.63;2.57;;;;;;;;;;5098602;28;20107;-62
2022/11/29 10:30:55;;;;;;;6.50;4.23;;;;;;;;;;5091273;28;20028;-62
2022/11/29 10:33:35;;;;;;;5.57;3.17;;;;;;;;;;5093793;28;20036;-62
2022/11/29 10:36:05;;;;;;;5.10;3.50;;;;;;;;;;5094242;28;20066;-62
2022/11/29 10:38:32;;;;;;;3.73;2.63;;;;;;;;;;5093958;28;20020;-62
2022/11/29 10:41:07;;;;;;;3.47;2.03;;;;;;;;;;5094073;28;20103;-62
2022/11/29 10:43:36;;;;;;;3.10;1.90;;;;;;;;;;5090128;28;20107;-62
2022/11/29 10:46:03;;;;;;;5.30;2.73;;;;;;;;;;5088162;28;20092;-62
2022/11/29 10:48:30;;;;;;;3.00;2.33;;;;;;;;;;5088397;28;20024;-62
2022/11/29 10:50:57;;;;;;;5.13;3.70;;;;;;;;;;5088219;28;20405;-62
2022/11/29 10:53:25;;;;;;;11.23;5.17;;;;;;;;;;5108574;28;20521;-62
2022/11/29 10:55:58;;;;;;;7.00;4.20;;;;;;;;;;5114083;28;20042;-62
2022/11/29 10:58:26;;;;;;;4.17;3.00;;;;;;;;;;5113707;28;20023;-61
2022/11/29 11:00:54;;;;;;;4.83;3.63;;;;;;;;;;5113831;28;20118;-62
2022/11/29 11:03:36;;;;;;;4.73;3.20;;;;;;;;;;5113767;28;20027;-62
2022/11/29 11:06:08;;;;;;;4.10;2.80;;;;;;;;;;5109951;28;20016;-62
2022/11/29 11:08:35;;;;;;;2.93;2.30;;;;;;;;;;5108154;28;20397;-62
2022/11/29 11:11:04;;;;;;;2.63;1.93;;;;;;;;;;5107960;28;20093;-62
2022/11/29 11:13:32;;;;;;;2.80;1.70;;;;;;;;;;5108274;28;20027;-62
2022/11/29 11:16:16;;;;;;;2.87;1.87;;;;;;;;;;5105993;28;20106;-62
2022/11/29 11:18:43;;;;;;;2.90;1.83;;;;;;;;;;5093162;28;20020;-61
2022/11/29 11:21:17;;;;;;;2.63;2.03;;;;;;;;;;5092943;28;20032;-62
2022/11/29 11:23:55;;;;;;;2.65;1.88;;;;;;;;;;5106571;28;20032;-62
2022/11/29 11:26:23;;;;;;;5.73;2.67;;;;;;;;;;5113060;28;20024;-61
2022/11/29 11:28:52;;;;;;;3.17;2.13;;;;;;;;;;5108472;28;20482;-62
2022/11/29 11:31:38;;;;;;;3.70;2.43;;;;;;;;;;5108011;28;20016;-62
2022/11/29 11:34:25;;;;;;;5.90;2.90;;;;;;;;;;5107896;28;20023;-61
2022/11/29 11:36:52;;;;;;;2.50;1.93;;;;;;;;;;5107799;28;20036;-62
2022/11/29 11:39:21;;;;;;;5.20;3.17;;;;;;;;;;5111417;28;20020;-62
2022/11/29 11:44:33;;;;;;;5.10;4.25;;;;;;;;;;5093155;28;20059;-61
2022/11/29 11:47:00;;;;;;;5.87;4.00;;;;;;;;;;5092873;28;20035;-62
2022/11/29 11:49:45;;;;;;;8.50;4.67;;;;;;;;;;5091445;28;20059;-62
2022/11/29 11:52:25;;;;;;;6.00;2.67;;;;;;;;;;5086850;28;20028;-62
2022/11/29 11:54:57;;;;;;;3.27;2.17;;;;;;;;;;5087044;28;20070;-62
2022/11/29 11:57:25;;;;;;;2.67;2.13;;;;;;;;;;5086844;28;20031;-61
2022/11/29 11:59:53;;;;;;;2.17;1.63;;;;;;;;;;5088777;28;20024;-61
2022/11/29 12:02:27;;;;;;;4.17;2.60;;;;;;;;;;5097301;28;20462;-62
2022/11/29 12:05:00;;;;;;;2.03;1.60;;;;;;;;;;5112856;28;20032;-61
2022/11/29 12:07:32;;;;;;;3.30;2.17;;;;;;;;;;5112859;28;20024;-61
2022/11/29 12:10:05;;;;;;;1.97;1.40;;;;;;;;;;5112777;28;20023;-61
2022/11/29 12:12:41;;;;;;;3.77;2.57;;;;;;;;;;5109206;28;20482;-61
2022/11/29 12:15:15;;;;;;;3.70;2.67;;;;;;;;;;5107483;28;21710;-61
2022/11/29 12:18:02;;;;;;;3.67;1.98;;;;;;;;;;5098588;28;20055;-61
2022/11/29 12:20:40;;;;;;;2.17;1.63;;;;;;;;;;5086109;28;20028;-61
2022/11/29 12:23:17;;;;;;;1.87;1.33;;;;;;;;;;5090651;28;20039;-61
2022/11/29 12:26:00;;;;;;;16.17;11.20;;;;;;;;;;5092239;28;20036;-61
2022/11/29 12:28:28;;;;;;;7.43;4.27;;;;;;;;;;5091628;28;20421;-62
2022/11/29 12:30:58;;;;;;;4.63;3.17;;;;;;;;;;5092337;28;20035;-62
2022/11/29 12:33:43;;;;;;;4.53;2.40;;;;;;;;;;5091953;28;20046;-61
2022/11/29 12:36:10;;;;;;;3.95;3.20;;;;;;;;;;5086980;28;20077;-61
2022/11/29 12:38:46;;;;;;;5.07;3.50;;;;;;;;;;5086693;28;20032;-62
2022/11/29 12:41:12;;;;;;;5.87;3.50;;;;;;;;;;5089476;28;20027;-62
2022/11/29 12:43:49;;;;;;;7.03;2.60;;;;;;;;;;5107137;28;20028;-61
2022/11/29 12:46:16;;;;;;;6.33;4.57;;;;;;;;;;5112360;28;20011;-61
2022/11/29 12:48:55;;;;;;;9.53;4.23;;;;;;;;;;5112292;28;20113;-62
2022/11/29 12:51:30;;;;;;;6.23;4.47;;;;;;;;;;5112292;28;20023;-61
2022/11/29 12:54:35;;;;;;;5.43;3.03;;;;;;;;;;5112462;28;20032;-61
2022/11/29 12:57:03;;;;;;;3.43;2.60;;;;;;;;;;5007090;28;20533;-62
2022/11/29 12:59:29;;;;;;;11.67;3.13;;;;;;;;;;5004260;28;20030;-61
2022/11/29 13:02:04;;;;;;;3.30;2.00;;;;;;;;;;5053862;28;20885;-61
2022/11/29 13:04:45;;;;;;;21.25;3.08;;;;;;;;;;5106740;28;20057;-61
2022/11/29 13:07:14;;;;;;;4.87;3.23;;;;;;;;;;5106351;28;20031;-62
2022/11/29 13:09:41;;;;;;;3.10;2.40;;;;;;;;;;5091936;28;20768;-62
2022/11/29 13:12:20;;;;;;;2.90;2.00;;;;;;;;;;5095813;28;20035;-61
2022/11/29 13:14:55;;;;;;;5.37;3.73;;;;;;;;;;5095680;28;20023;-61
2022/11/29 13:17:45;;;;;;;3.10;2.40;;;;;;;;;;5095207;28;20045;-62
2022/11/29 13:20:17;;;;;;;3.57;2.53;;;;;;;;;;5090481;28;20025;-61
2022/11/29 13:22:58;;;;;;;3.87;3.00;;;;;;;;;;5090438;28;20028;-62
2022/11/29 13:25:28;;;;;;;2.80;2.00;;;;;;;;;;5089888;28;20419;-61
2022/11/29 13:28:15;;;;;;;4.03;3.07;;;;;;;;;;5089888;28;20032;-61
2022/11/29 13:30:41;;;;;;;13.00;2.47;;;;;;;;;;5095308;28;20022;-62
2022/11/29 13:33:32;;;;;;;3.40;2.30;;;;;;;;;;5095202;28;20111;-62
2022/11/29 13:36:18;;;;;;;7.47;2.87;;;;;;;;;;5095356;28;20141;-62
2022/11/29 13:39:08;;;;;;;4.03;2.58;;;;;;;;;;5095573;28;20390;-61
2022/11/29 13:41:41;;;;;;;3.67;2.70;;;;;;;;;;5092269;28;20024;-63
2022/11/29 13:44:29;;;;;;;7.73;3.40;;;;;;;;;;5108825;28;20085;-62
2022/11/29 13:47:07;;;;;;;4.67;3.27;;;;;;;;;;5109475;28;20055;-62
2022/11/29 13:49:53;;;;;;;5.07;2.93;;;;;;;;;;5109795;28;20070;-62
2022/11/29 13:52:38;;;;;;;4.00;2.67;;;;;;;;;;5114302;28;20427;-62
2022/11/29 13:55:04;;;;;;;3.45;2.55;;;;;;;;;;5115301;28;20027;-62
2022/11/29 13:57:46;;;;;;;3.00;1.80;;;;;;;;;;5109689;28;20024;-62
2022/11/29 14:00:32;;;;;;;10.80;3.23;;;;;;;;;;5094710;28;20870;-62
2022/11/29 14:02:58;;;;;;;;;;;;;;;;;;5093884;28;20032;-62
2022/11/29 14:05:26;;;;;;;4.97;3.10;;;;;;;;;;5089273;28;20346;-62
2022/11/29 14:08:11;;;;;;;3.30;2.50;;;;;;;;;;5089204;28;20064;-62
2022/11/29 14:10:38;;;;;;;4.68;2.35;;;;;;;;;;5091205;28;20074;-63
2022/11/29 14:13:05;;;;;;;6.20;2.70;;;;;;;;;;5098989;28;20023;-63
2022/11/29 14:15:32;;;;;;;3.67;2.43;;;;;;;;;;5114907;28;20020;-62
2022/11/29 14:18:06;;;;;;;3.47;1.97;;;;;;;;;;5114876;28;20024;-62
2022/11/29 14:20:32;;;;;;;3.97;2.77;;;;;;;;;;5114280;28;20497;-62
2022/11/29 14:23:19;;;;;;;7.47;4.33;;;;;;;;;;5114801;28;20081;-62
2022/11/29 14:25:55;;;;;;;4.57;2.93;;;;;;;;;;5112510;28;20047;-62
2022/11/29 14:28:21;;;;;;;5.43;3.50;;;;;;;;;;5096656;28;20081;-62
2022/11/29 14:30:49;;;;;;;4.00;3.00;;;;;;;;;;5088774;28;20532;-62
2022/11/29 14:33:16;;;;;;;4.20;3.10;;;;;;;;;;5088746;28;20066;-62
2022/11/29 14:35:43;;;;;;;3.83;2.20;;;;;;;;;;5090502;28;20059;-62
2022/11/29 14:38:09;;;;;;;4.00;2.97;;;;;;;;;;5093328;28;20024;-63
2022/11/29 14:40:36;;;;;;;5.93;3.70;;;;;;;;;;5093978;28;20540;-63
2022/11/29 14:43:04;;;;;;;10.00;3.70;;;;;;;;;;5094028;28;20443;-63
2022/11/29 14:45:33;;;;;;;10.77;4.87;;;;;;;;;;5093704;28;20026;-62
2022/11/29 14:48:00;;;;;;;3.77;2.53;;;;;;;;;;5091888;28;20028;-63
2022/11/29 14:50:29;;;;;;;3.57;2.37;;;;;;;;;;5088279;28;20040;-63
2022/11/29 14:52:56;;;;;;;3.63;2.87;;;;;;;;;;5101137;28;20045;-64
2022/11/29 14:55:26;;;;;;;3.87;3.27;;;;;;;;;;5108844;28;20551;-62
2022/11/29 14:57:52;;;;;;;4.87;3.57;;;;;;;;;;5109912;28;20031;-63
2022/11/29 15:00:23;;;;;;;6.90;3.77;;;;;;;;;;5114064;28;20708;-62
2022/11/29 15:03:01;;;;;;;3.57;2.33;;;;;;;;;;5113866;28;20023;-63
2022/11/29 15:05:32;;;;;;;9.40;3.60;;;;;;;;;;5113827;28;20474;-64
2022/11/29 15:08:22;;;;;;;4.17;3.17;;;;;;;;;;5114027;28;20385;-62
2022/11/29 15:10:54;;;;;;;6.07;3.93;;;;;;;;;;5095961;28;20039;-63
2022/11/29 15:13:25;;;;;;;5.83;3.07;;;;;;;;;;5108055;28;20042;-63
2022/11/29 15:16:07;;;;;;;3.63;2.83;;;;;;;;;;5108285;28;20016;-63
2022/11/29 15:18:34;;;;;;;5.93;3.13;;;;;;;;;;5108250;28;20016;-63
2022/11/29 15:21:11;;;;;;;8.50;3.23;;;;;;;;;;5111594;28;20035;-63
2022/11/29 15:23:41;;;;;;;6.43;3.37;;;;;;;;;;5113620;28;20604;-63
2022/11/29 15:26:19;;;;;;;5.30;3.97;;;;;;;;;;5113536;28;20024;-63